Overview Statistics Trail Chart Weather Telemetry Raw packets
 

This is the latest recevied weather packets stored in our database for station/object S51UL-6. If no packets are shown the sender has not sent any weather packets the latest 10 day(s).

<< 39 40 41 42 43 44 45 >>
Time Temp. Humidity Pressure Rain* Wind** Luminosity Snow
1788356779 30° C 47% 1019.9 hPa 7.62 mm - - -
1788356479 29.44° C 46% 1019.9 hPa 7.62 mm - - -
1788355879 30° C 45% 1019.9 hPa 8.13 mm - - -
1788355579 30° C 45% 1020 hPa 7.11 mm - - -
1788355279 30° C 44% 1019.9 hPa 6.1 mm - - -
1788354679 30.56° C 43% 1020 hPa 5.59 mm - - -
1788354379 31.11° C 44% 1020 hPa 7.62 mm - - -
1788354079 30.56° C 44% 1020.1 hPa 11.94 mm - - -
1788353780 31.11° C 43% 1020.3 hPa 11.43 mm - - -
1788353479 31.11° C 44% 1020.3 hPa 17.02 mm - - -
1788353180 31.11° C 43% 1020.2 hPa 17.02 mm - - -
1788352880 31.11° C 43% 1020.2 hPa 21.34 mm - - -
1788352580 31.67° C 45% 1020.4 hPa 21.34 mm - - -
1788352280 31.67° C 45% 1020.4 hPa 23.37 mm - - -
1788351681 31.67° C 44% 1020.4 hPa 29.46 mm - - -
1788351380 31.67° C 45% 1020.6 hPa 29.46 mm - - -
1788350781 32.22° C 43% 1021 hPa 30.48 mm - - -
1788350480 31.67° C 45% 1021.1 hPa 33.53 mm - - -
1788349880 32.22° C 44% 1021 hPa 26.92 mm - - -
1788349281 32.22° C 47% 1021.1 hPa 23.37 mm - - -
1788348980 32.22° C 47% 1021.2 hPa 21.59 mm - - -
1788348681 32.22° C 48% 1021.1 hPa 22.61 mm - - -
1788348081 32.22° C 46% 1021.6 hPa 17.53 mm - - -
1788347781 33.33° C 45% 1021.8 hPa 17.53 mm - - -
1788346881 31.67° C 51% 1021.7 hPa 10.92 mm - - -

* Rain latest hour (hover to see other rain measurements)
** Current wind speed in m/s (hover to see current wind gust speed)